createdAt,value
2022-07-31T00:02:12.087Z,66.45
2022-07-31T00:04:29.402Z,66.92
2022-07-31T00:06:46.453Z,66.31
2022-07-31T00:09:04.327Z,67.39
2022-07-31T00:11:21.432Z,68.95
2022-07-31T00:13:57.097Z,66.58
2022-07-31T00:16:15.810Z,68.74
2022-07-31T00:18:34.192Z,69.30
2022-07-31T00:20:51.644Z,69.79
2022-07-31T00:23:09.541Z,69.29
2022-07-31T00:25:28.596Z,69.72
2022-07-31T00:27:45.908Z,69.88
2022-07-31T00:30:02.943Z,68.68
2022-07-31T00:32:19.883Z,69.61
2022-07-31T00:34:36.917Z,67.84
2022-07-31T00:36:53.965Z,68.43
2022-07-31T00:39:11.287Z,70.53
2022-07-31T00:41:28.747Z,69.21
2022-07-31T00:43:46.022Z,68.69
2022-07-31T00:46:04.781Z,68.06
2022-07-31T00:48:21.831Z,69.66
2022-07-31T00:50:40.127Z,69.38
2022-07-31T00:52:58.117Z,69.23
2022-07-31T00:55:15.175Z,69.34
2022-07-31T00:57:32.496Z,69.76
2022-07-31T00:59:49.526Z,68.91
2022-07-31T01:02:07.530Z,70.17
2022-07-31T01:04:24.791Z,69.19
2022-07-31T01:06:42.861Z,68.92
2022-07-31T01:08:59.944Z,69.43
2022-07-31T01:11:17.251Z,70.95
2022-07-31T01:13:34.203Z,71.08
2022-07-31T01:15:51.553Z,70.31
2022-07-31T01:18:08.823Z,70.13
2022-07-31T01:20:27.902Z,69.21
2022-07-31T01:22:44.923Z,70.33
2022-07-31T01:25:01.977Z,70.82
2022-07-31T01:27:19.227Z,70.11
2022-07-31T01:29:36.231Z,71.29
2022-07-31T01:31:53.567Z,71.75
2022-07-31T01:34:10.631Z,70.48
2022-07-31T01:36:27.761Z,71.61
2022-07-31T01:38:45.752Z,71.05
2022-07-31T01:41:04.105Z,68.53
2022-07-31T01:43:21.223Z,69.32
2022-07-31T01:45:38.445Z,70.81
2022-07-31T01:47:55.780Z,71.81
2022-07-31T01:50:42.483Z,71.58
2022-07-31T01:52:51.459Z,72.51
2022-07-31T01:55:08.437Z,71.29
2022-07-31T01:57:25.833Z,71.27
2022-07-31T01:59:44.880Z,70.18
2022-07-31T02:02:03.599Z,70.36
2022-07-31T02:04:22.799Z,70.58
2022-07-31T02:06:39.763Z,72.34
2022-07-31T02:08:56.887Z,72.52
2022-07-31T02:11:13.843Z,71.54
2022-07-31T02:13:30.973Z,72.05
2022-07-31T02:15:47.984Z,70.92
2022-07-31T02:18:04.940Z,70.98
2022-07-31T02:20:22.160Z,71.24
2022-07-31T02:22:40.223Z,72.03
2022-07-31T02:24:57.873Z,71.18
2022-07-31T02:27:53.921Z,70.95
2022-07-31T02:29:52.602Z,71.82
2022-07-31T02:32:11.755Z,71.87
2022-07-31T02:34:29.298Z,71.88
2022-07-31T02:36:47.310Z,72.00
2022-07-31T02:39:05.394Z,71.97
2022-07-31T02:41:22.323Z,72.48
2022-07-31T02:43:39.963Z,72.39
2022-07-31T02:45:59.437Z,71.71
2022-07-31T02:48:16.518Z,72.29
2022-07-31T02:50:34.768Z,72.35
2022-07-31T02:52:51.771Z,71.95
2022-07-31T02:55:09.676Z,71.76
2022-07-31T02:57:26.826Z,73.07
2022-07-31T02:59:45.142Z,73.85
2022-07-31T03:02:02.409Z,73.33
2022-07-31T03:04:19.514Z,73.29
2022-07-31T03:06:37.437Z,72.94
2022-07-31T03:08:54.547Z,73.39
2022-07-31T03:11:12.207Z,72.81
2022-07-31T03:13:29.210Z,72.84
2022-07-31T03:15:50.830Z,71.77
2022-07-31T03:18:11.227Z,73.14
2022-07-31T03:20:28.658Z,72.88
2022-07-31T03:22:45.738Z,73.57
2022-07-31T03:25:03.131Z,73.73
2022-07-31T03:27:20.233Z,73.45
2022-07-31T03:29:42.789Z,72.86
2022-07-31T03:32:01.085Z,72.33
2022-07-31T03:34:18.567Z,72.64
2022-07-31T03:36:35.902Z,73.11
2022-07-31T03:38:53.945Z,72.34
2022-07-31T03:41:10.920Z,73.37
2022-07-31T03:43:28.341Z,72.76
2022-07-31T03:46:00.643Z,72.99
2022-07-31T03:48:17.620Z,73.60
2022-07-31T03:50:34.631Z,74.16
2022-07-31T03:52:52.655Z,74.04
2022-07-31T03:55:11.011Z,73.58
2022-07-31T03:57:31.154Z,72.40
2022-07-31T03:59:48.830Z,73.88
2022-07-31T04:02:06.802Z,73.88
2022-07-31T04:04:23.930Z,73.36
2022-07-31T04:06:41.210Z,73.95
2022-07-31T04:08:58.523Z,74.61
2022-07-31T04:11:16.064Z,74.55
2022-07-31T04:13:34.357Z,73.33
2022-07-31T04:15:51.407Z,74.56
2022-07-31T04:18:09.366Z,73.48
2022-07-31T04:20:29.030Z,74.09
2022-07-31T04:22:46.357Z,74.58
2022-07-31T04:25:06.863Z,73.32
2022-07-31T04:27:23.894Z,73.32
2022-07-31T04:29:40.966Z,74.96
2022-07-31T04:31:58.224Z,74.43
2022-07-31T04:34:15.267Z,73.46
2022-07-31T04:36:32.302Z,74.37
2022-07-31T04:38:49.338Z,72.93
2022-07-31T04:41:06.685Z,74.29
2022-07-31T04:43:23.725Z,74.36
2022-07-31T04:45:40.755Z,74.72
2022-07-31T04:47:57.777Z,71.97
2022-07-31T04:50:15.581Z,73.50
2022-07-31T04:52:32.637Z,74.19
2022-07-31T04:54:49.586Z,73.68
2022-07-31T04:57:06.659Z,73.21
2022-07-31T04:59:58.157Z,74.38
2022-07-31T05:02:02.380Z,72.88
2022-07-31T05:04:19.581Z,74.18
2022-07-31T05:06:36.867Z,73.12
2022-07-31T05:08:53.889Z,72.85
2022-07-31T05:11:11.905Z,73.61
2022-07-31T05:13:31.367Z,72.04
2022-07-31T05:15:48.424Z,72.94
2022-07-31T05:18:05.716Z,73.19
2022-07-31T05:20:22.763Z,72.83
2022-07-31T05:22:40.824Z,72.09
2022-07-31T05:24:59.030Z,72.21
2022-07-31T05:27:16.329Z,72.86
2022-07-31T05:29:33.399Z,73.81
2022-07-31T05:31:59.857Z,73.11
2022-07-31T05:34:17.785Z,72.29
2022-07-31T05:36:34.924Z,72.23
2022-07-31T05:38:52.856Z,73.31
2022-07-31T05:41:09.858Z,73.28
2022-07-31T05:43:26.837Z,70.85
2022-07-31T05:45:44.158Z,72.34
2022-07-31T05:48:01.143Z,71.56
2022-07-31T05:50:18.112Z,71.87
2022-07-31T05:52:35.420Z,70.64
2022-07-31T05:54:52.873Z,72.37
2022-07-31T05:57:10.145Z,70.27
2022-07-31T05:59:27.929Z,71.00
2022-07-31T06:01:45.886Z,70.33
2022-07-31T06:04:03.168Z,70.63
2022-07-31T06:06:20.229Z,69.41
2022-07-31T06:08:38.280Z,70.06
2022-07-31T06:10:55.373Z,69.05
2022-07-31T06:13:12.330Z,68.70
2022-07-31T06:15:33.159Z,67.54
2022-07-31T06:17:52.938Z,67.53
2022-07-31T06:20:09.967Z,67.60
2022-07-31T06:22:27.246Z,67.58
2022-07-31T06:24:45.220Z,67.92
2022-07-31T06:27:02.588Z,68.02
2022-07-31T06:29:23.817Z,68.31
2022-07-31T06:31:57.911Z,68.41
2022-07-31T06:34:19.810Z,67.82
2022-07-31T06:36:37.347Z,66.70
2022-07-31T06:38:54.378Z,66.53
2022-07-31T06:41:12.163Z,65.37
2022-07-31T06:43:29.962Z,64.57
2022-07-31T06:45:51.237Z,64.38
2022-07-31T06:48:08.895Z,64.18
2022-07-31T06:50:26.248Z,64.02
2022-07-31T06:52:43.290Z,62.53
2022-07-31T06:55:00.368Z,62.88
2022-07-31T06:57:17.222Z,62.47
2022-07-31T06:59:39.744Z,62.95
2022-07-31T07:01:58.789Z,62.15
2022-07-31T07:04:15.860Z,61.47
2022-07-31T07:06:34.173Z,60.37
2022-07-31T07:08:51.479Z,58.80
2022-07-31T07:11:12.108Z,58.47
2022-07-31T07:13:46.158Z,58.83
2022-07-31T07:16:04.038Z,57.27
2022-07-31T07:18:23.574Z,57.55
2022-07-31T07:20:40.846Z,57.40
2022-07-31T07:22:58.868Z,57.97
2022-07-31T07:25:16.144Z,57.45
2022-07-31T07:27:33.085Z,57.75
2022-07-31T07:29:50.416Z,56.22
2022-07-31T07:32:07.409Z,56.54
2022-07-31T07:34:24.490Z,56.50
2022-07-31T07:36:41.529Z,56.46
2022-07-31T07:38:58.573Z,56.37
2022-07-31T07:41:15.567Z,55.80
2022-07-31T07:43:35.941Z,55.50
2022-07-31T07:45:56.229Z,54.96
2022-07-31T07:48:13.190Z,53.76
2022-07-31T07:50:30.259Z,53.73
2022-07-31T07:52:48.520Z,51.24
2022-07-31T07:55:06.554Z,51.47
2022-07-31T07:57:23.611Z,51.60
2022-07-31T07:59:40.925Z,48.89
2022-07-31T08:01:57.974Z,48.96
2022-07-31T08:04:14.920Z,49.33
2022-07-31T08:06:32.846Z,50.35
2022-07-31T08:08:50.151Z,48.48
2022-07-31T08:11:07.183Z,46.87
2022-07-31T08:13:24.247Z,46.26
2022-07-31T08:15:41.269Z,46.50
2022-07-31T08:17:58.132Z,44.71
2022-07-31T08:20:15.477Z,44.20
2022-07-31T08:22:33.512Z,44.29
2022-07-31T08:24:50.855Z,44.71
2022-07-31T08:27:10.520Z,43.89
2022-07-31T08:29:28.942Z,43.98
2022-07-31T08:31:49.584Z,43.03
2022-07-31T08:34:07.020Z,43.56
2022-07-31T08:36:23.994Z,43.02
2022-07-31T08:38:42.515Z,42.31
2022-07-31T08:40:59.459Z,42.03
2022-07-31T08:44:02.254Z,42.05
2022-07-31T08:45:54.777Z,41.97
2022-07-31T08:48:11.846Z,42.22
2022-07-31T08:50:30.215Z,42.15
2022-07-31T08:52:48.807Z,41.61
2022-07-31T08:55:06.201Z,41.05
2022-07-31T08:57:24.290Z,40.83
2022-07-31T08:59:41.311Z,41.71
2022-07-31T09:01:58.371Z,40.92
2022-07-31T09:04:15.721Z,40.24
2022-07-31T09:06:33.605Z,40.21
2022-07-31T09:08:50.637Z,40.10
2022-07-31T09:11:08.899Z,40.55
2022-07-31T09:13:25.959Z,41.05
2022-07-31T09:15:43.147Z,40.27
2022-07-31T09:18:00.242Z,40.09
2022-07-31T09:20:17.254Z,40.61
2022-07-31T09:22:34.570Z,41.87
2022-07-31T09:24:51.909Z,40.04
2022-07-31T09:27:08.898Z,40.30
2022-07-31T09:29:26.173Z,39.61
2022-07-31T09:31:43.163Z,38.45
2022-07-31T09:34:00.241Z,37.56
2022-07-31T09:36:19.299Z,37.20
2022-07-31T09:38:37.505Z,37.33
2022-07-31T09:40:56.832Z,36.96
2022-07-31T09:43:14.772Z,37.76
2022-07-31T09:45:32.074Z,38.54
2022-07-31T09:47:49.025Z,37.20
2022-07-31T09:50:06.075Z,38.64
2022-07-31T09:52:23.367Z,37.41
2022-07-31T09:54:40.623Z,37.76
2022-07-31T09:56:57.947Z,37.60
2022-07-31T09:59:15.128Z,37.94
2022-07-31T10:01:32.149Z,38.00
2022-07-31T10:03:49.278Z,37.05
2022-07-31T10:06:06.246Z,36.74
2022-07-31T10:08:23.225Z,36.73
2022-07-31T10:10:40.281Z,36.58
2022-07-31T10:12:57.545Z,37.24
2022-07-31T10:15:15.785Z,36.94
2022-07-31T10:17:36.053Z,36.31
2022-07-31T10:19:53.590Z,36.48
2022-07-31T10:22:10.983Z,35.67
2022-07-31T10:24:29.120Z,35.47
2022-07-31T10:27:07.812Z,34.71
2022-07-31T10:29:24.424Z,34.95
2022-07-31T10:31:42.420Z,35.21
2022-07-31T10:33:59.498Z,35.58
2022-07-31T10:36:16.448Z,35.68
2022-07-31T10:38:38.137Z,35.96
2022-07-31T10:40:55.706Z,35.06
2022-07-31T10:43:12.773Z,35.10
2022-07-31T10:45:29.728Z,35.70
2022-07-31T10:47:48.926Z,35.70
2022-07-31T10:50:06.063Z,35.61
2022-07-31T10:52:23.072Z,36.16
2022-07-31T10:54:40.054Z,34.93
2022-07-31T10:56:57.033Z,34.60
2022-07-31T10:59:14.024Z,35.17
2022-07-31T11:01:31.005Z,34.42
2022-07-31T11:03:47.913Z,34.29
2022-07-31T11:06:06.217Z,34.99
2022-07-31T11:08:23.439Z,33.33
2022-07-31T11:10:41.381Z,33.57
2022-07-31T11:12:58.415Z,34.23
2022-07-31T11:15:15.390Z,32.84
2022-07-31T11:18:21.158Z,32.31
2022-07-31T11:20:09.978Z,33.41
2022-07-31T11:22:31.339Z,31.06
2022-07-31T11:24:50.152Z,31.84
2022-07-31T11:27:07.407Z,32.04
2022-07-31T11:30:00.317Z,32.26
2022-07-31T11:32:01.535Z,31.38
2022-07-31T11:34:18.600Z,32.72
2022-07-31T11:36:35.654Z,32.47
2022-07-31T11:38:52.922Z,32.39
2022-07-31T11:41:10.261Z,32.55
2022-07-31T11:43:31.526Z,31.28
2022-07-31T11:45:48.538Z,31.46
2022-07-31T11:48:11.629Z,32.02
2022-07-31T11:50:30.748Z,32.67
2022-07-31T11:52:48.264Z,31.39
2022-07-31T11:55:08.899Z,31.43
2022-07-31T11:57:26.578Z,31.32
2022-07-31T12:00:03.892Z,30.46
2022-07-31T12:02:40.795Z,31.52
2022-07-31T12:04:57.897Z,30.00
2022-07-31T12:07:14.915Z,29.78
2022-07-31T12:10:01.310Z,30.18
2022-07-31T12:12:08.795Z,29.82
2022-07-31T12:14:25.811Z,30.11
2022-07-31T12:16:43.764Z,30.53
2022-07-31T12:19:01.740Z,31.71
2022-07-31T12:21:19.767Z,31.32
2022-07-31T12:23:40.409Z,30.60
2022-07-31T12:25:58.619Z,31.47
2022-07-31T12:28:15.617Z,30.64
2022-07-31T12:30:32.893Z,30.97
2022-07-31T12:32:50.902Z,31.05
2022-07-31T12:35:08.162Z,31.15
2022-07-31T12:37:25.233Z,30.53
2022-07-31T12:39:53.996Z,30.19
2022-07-31T12:42:17.446Z,31.50
2022-07-31T12:44:35.387Z,31.65
2022-07-31T12:46:52.407Z,31.22
2022-07-31T12:49:09.744Z,30.45
2022-07-31T12:51:46.250Z,29.85
2022-07-31T12:54:04.032Z,30.02
2022-07-31T12:56:22.413Z,29.54
2022-07-31T12:58:39.668Z,28.63
2022-07-31T13:00:57.004Z,29.10
2022-07-31T13:03:14.945Z,28.69
2022-07-31T13:05:31.991Z,28.97
2022-07-31T13:07:49.250Z,29.52
2022-07-31T13:10:19.941Z,30.31
2022-07-31T13:12:40.298Z,31.18
2022-07-31T13:14:57.703Z,30.77
2022-07-31T13:17:15.737Z,31.48
2022-07-31T13:19:33.013Z,31.75
2022-07-31T13:21:50.340Z,31.65
2022-07-31T13:24:07.665Z,31.34
2022-07-31T13:26:25.594Z,31.16
2022-07-31T13:28:43.854Z,31.43
2022-07-31T13:31:02.775Z,30.47
2022-07-31T13:33:19.767Z,30.87
2022-07-31T13:35:37.072Z,31.05
2022-07-31T13:37:54.335Z,30.94
2022-07-31T13:40:11.278Z,30.65
2022-07-31T13:42:29.943Z,30.33
2022-07-31T13:44:47.254Z,30.47
2022-07-31T13:47:04.533Z,30.16
2022-07-31T13:49:21.798Z,31.14
2022-07-31T13:51:38.984Z,31.36
2022-07-31T13:53:55.991Z,31.82
2022-07-31T13:56:13.041Z,31.84
2022-07-31T13:58:50.068Z,31.52
2022-07-31T14:01:07.395Z,31.39
2022-07-31T14:03:25.851Z,31.32
2022-07-31T14:05:44.049Z,32.04
2022-07-31T14:08:33.443Z,31.47
2022-07-31T14:10:38.106Z,31.39
2022-07-31T14:12:55.127Z,31.63
2022-07-31T14:15:12.225Z,30.33
2022-07-31T14:17:29.255Z,30.64
2022-07-31T14:19:46.191Z,31.14
2022-07-31T14:22:03.123Z,29.63
2022-07-31T14:24:20.430Z,30.15
2022-07-31T14:26:37.493Z,29.15
2022-07-31T14:28:54.793Z,29.05
2022-07-31T14:31:12.101Z,29.38
2022-07-31T14:33:29.371Z,29.93
2022-07-31T14:35:54.563Z,30.20
2022-07-31T14:38:14.263Z,29.08
2022-07-31T14:40:44.602Z,29.75
2022-07-31T14:43:04.002Z,30.52
2022-07-31T14:45:21.281Z,29.79
2022-07-31T14:47:38.692Z,29.27
2022-07-31T14:50:07.378Z,30.51
2022-07-31T14:52:27.807Z,30.59
2022-07-31T14:54:46.006Z,30.27
2022-07-31T14:57:03.272Z,30.46
2022-07-31T14:59:20.235Z,32.48
2022-07-31T15:01:37.604Z,30.75
2022-07-31T15:03:54.658Z,31.55
2022-07-31T15:06:50.773Z,31.43
2022-07-31T15:08:48.843Z,30.97
2022-07-31T15:11:05.810Z,32.49
2022-07-31T15:13:23.221Z,31.88
2022-07-31T15:15:40.568Z,30.65
2022-07-31T15:17:57.672Z,32.10
2022-07-31T15:20:14.980Z,31.20
2022-07-31T15:22:31.861Z,30.59
2022-07-31T15:24:50.156Z,30.47
2022-07-31T15:27:07.756Z,31.00
2022-07-31T15:29:26.401Z,31.05
2022-07-31T15:32:03.416Z,30.80
2022-07-31T15:34:20.424Z,30.42
2022-07-31T15:36:37.973Z,30.10
2022-07-31T15:38:55.034Z,30.03
2022-07-31T15:41:12.323Z,30.16
2022-07-31T15:43:36.428Z,31.06
2022-07-31T15:45:55.377Z,31.33
2022-07-31T15:48:12.397Z,30.33
2022-07-31T15:50:29.407Z,29.45
2022-07-31T15:52:47.472Z,30.53
2022-07-31T15:55:04.438Z,30.52
2022-07-31T15:57:21.450Z,30.50
2022-07-31T15:59:38.503Z,30.20
2022-07-31T16:01:59.781Z,30.70
2022-07-31T16:04:17.502Z,30.51
2022-07-31T16:06:35.824Z,30.22
2022-07-31T16:08:53.353Z,31.60
2022-07-31T16:11:10.592Z,30.65
2022-07-31T16:13:27.622Z,32.06
2022-07-31T16:15:44.941Z,30.30
2022-07-31T16:18:01.910Z,30.70
2022-07-31T16:20:26.338Z,31.47
2022-07-31T16:22:44.251Z,33.07
2022-07-31T16:25:01.221Z,33.60
2022-07-31T16:27:18.286Z,33.57
2022-07-31T16:29:59.469Z,33.92
2022-07-31T16:32:12.208Z,33.75
2022-07-31T16:34:29.437Z,34.15
2022-07-31T16:36:46.488Z,34.04
2022-07-31T16:39:19.489Z,33.81
2022-07-31T16:41:38.868Z,32.85
2022-07-31T16:44:11.702Z,33.20
2022-07-31T16:46:28.740Z,33.02
2022-07-31T16:48:46.121Z,32.07
2022-07-31T16:51:03.290Z,33.50
2022-07-31T16:54:10.912Z,32.61
2022-07-31T16:56:01.120Z,33.36
2022-07-31T16:58:18.772Z,32.90
2022-07-31T17:00:41.917Z,32.54
2022-07-31T17:02:59.213Z,32.93
2022-07-31T17:05:16.263Z,33.76
2022-07-31T17:07:33.520Z,33.48
2022-07-31T17:09:50.572Z,33.39
2022-07-31T17:12:08.568Z,33.66
2022-07-31T17:14:27.768Z,34.49
2022-07-31T17:16:48.172Z,34.26
2022-07-31T17:19:06.034Z,34.92
2022-07-31T17:21:23.293Z,35.74
2022-07-31T17:23:51.226Z,35.89
2022-07-31T17:26:08.620Z,35.89
2022-07-31T17:28:25.706Z,36.26
2022-07-31T17:30:42.687Z,36.06
2022-07-31T17:33:00.110Z,36.34
2022-07-31T17:35:20.372Z,36.64
2022-07-31T17:37:41.153Z,36.08
2022-07-31T17:39:58.476Z,36.70
2022-07-31T17:42:18.188Z,36.40
2022-07-31T17:44:40.714Z,37.28
2022-07-31T17:47:05.273Z,37.26
2022-07-31T17:49:22.675Z,37.25
2022-07-31T17:51:39.962Z,36.97
2022-07-31T17:54:17.243Z,36.93
2022-07-31T17:56:34.213Z,36.89
2022-07-31T17:58:52.756Z,37.13
2022-07-31T18:01:10.824Z,36.89
2022-07-31T18:03:30.189Z,37.51
2022-07-31T18:05:47.480Z,37.85
2022-07-31T18:08:04.545Z,38.19
2022-07-31T18:10:38.541Z,37.87
2022-07-31T18:12:58.546Z,37.45
2022-07-31T18:15:15.815Z,38.13
2022-07-31T18:17:32.815Z,38.68
2022-07-31T18:19:49.750Z,38.88
2022-07-31T18:22:07.390Z,38.59
2022-07-31T18:24:24.641Z,39.20
2022-07-31T18:26:41.672Z,38.91
2022-07-31T18:28:58.653Z,39.68
2022-07-31T18:31:34.053Z,40.82
2022-07-31T18:33:52.967Z,39.19
2022-07-31T18:36:09.857Z,40.29
2022-07-31T18:38:26.936Z,40.76
2022-07-31T18:40:45.275Z,39.99
2022-07-31T18:43:02.616Z,41.40
2022-07-31T18:45:20.922Z,41.96
2022-07-31T18:47:38.212Z,42.56
2022-07-31T18:51:00.416Z,43.27
2022-07-31T18:52:32.241Z,43.96
2022-07-31T18:54:54.142Z,44.43
2022-07-31T18:57:11.519Z,43.88
2022-07-31T18:59:28.509Z,45.02
2022-07-31T19:01:45.844Z,45.70
2022-07-31T19:04:02.846Z,46.06
2022-07-31T19:06:20.172Z,46.15
2022-07-31T19:08:37.480Z,46.43
2022-07-31T19:10:54.403Z,46.66
2022-07-31T19:13:17.269Z,46.51
2022-07-31T19:15:36.401Z,46.11
2022-07-31T19:17:58.487Z,46.06
2022-07-31T19:20:56.210Z,46.74
2022-07-31T19:22:52.908Z,48.20
2022-07-31T19:25:10.161Z,48.34
2022-07-31T19:27:48.136Z,48.22
2022-07-31T19:30:04.271Z,48.35
2022-07-31T19:32:21.759Z,48.86
2022-07-31T19:34:38.990Z,50.04
2022-07-31T19:36:59.161Z,50.14
2022-07-31T19:39:16.493Z,50.37
2022-07-31T19:41:33.577Z,50.73
2022-07-31T19:43:51.850Z,50.36
2022-07-31T19:46:11.692Z,51.08
2022-07-31T19:48:29.657Z,50.77
2022-07-31T19:50:47.126Z,51.10
2022-07-31T19:53:05.123Z,51.27
2022-07-31T19:55:22.153Z,51.71
2022-07-31T19:57:39.448Z,52.48
2022-07-31T19:59:56.441Z,52.22
2022-07-31T20:02:16.822Z,52.58
2022-07-31T20:04:34.445Z,52.19
2022-07-31T20:06:51.712Z,52.62
2022-07-31T20:09:09.976Z,52.36
2022-07-31T20:11:26.966Z,52.99
2022-07-31T20:13:44.304Z,53.55
2022-07-31T20:16:01.550Z,53.96
2022-07-31T20:18:25.197Z,54.04
2022-07-31T20:20:44.881Z,53.60
2022-07-31T20:23:01.907Z,54.30
2022-07-31T20:25:20.435Z,55.46
2022-07-31T20:27:37.714Z,55.45
2022-07-31T20:29:58.654Z,55.35
2022-07-31T20:32:15.973Z,55.47
2022-07-31T20:34:33.208Z,56.32
2022-07-31T20:36:50.516Z,56.64
2022-07-31T20:39:07.475Z,56.90
2022-07-31T20:41:25.561Z,55.87
2022-07-31T20:43:42.924Z,56.64
2022-07-31T20:46:00.232Z,56.94
2022-07-31T20:48:17.229Z,57.11
2022-07-31T20:50:34.275Z,57.32
2022-07-31T20:52:51.342Z,56.93
2022-07-31T20:55:08.398Z,56.87
2022-07-31T20:57:25.723Z,56.56
2022-07-31T20:59:42.732Z,57.91
2022-07-31T21:01:59.749Z,57.69
2022-07-31T21:04:17.293Z,57.67
2022-07-31T21:06:34.310Z,58.47
2022-07-31T21:08:51.578Z,58.61
2022-07-31T21:11:08.875Z,58.75
2022-07-31T21:13:27.262Z,57.84
2022-07-31T21:18:02.482Z,58.62
2022-07-31T21:20:20.745Z,58.66
2022-07-31T21:22:49.879Z,58.64
2022-07-31T21:25:06.915Z,59.25
2022-07-31T21:27:24.206Z,60.38
2022-07-31T21:29:41.532Z,59.34
2022-07-31T21:31:59.589Z,59.31
2022-07-31T21:34:16.560Z,59.24
2022-07-31T21:36:33.582Z,58.83
2022-07-31T21:38:50.660Z,59.51
2022-07-31T21:41:07.936Z,60.63
2022-07-31T21:43:24.977Z,59.57
2022-07-31T21:45:55.703Z,60.65
2022-07-31T21:48:15.325Z,61.19
2022-07-31T21:50:32.569Z,60.48
2022-07-31T21:52:50.024Z,61.48
2022-07-31T21:55:07.091Z,60.50
2022-07-31T21:57:25.325Z,61.64
2022-07-31T21:59:42.385Z,60.50
2022-07-31T22:02:01.988Z,61.73
2022-07-31T22:04:20.411Z,60.97
2022-07-31T22:06:47.012Z,61.38
2022-07-31T22:09:04.044Z,61.21
2022-07-31T22:11:21.306Z,61.54
2022-07-31T22:13:38.256Z,61.40
2022-07-31T22:15:59.858Z,60.44
2022-07-31T22:18:18.117Z,62.05
2022-07-31T22:20:35.158Z,61.76
2022-07-31T22:22:52.074Z,61.89
2022-07-31T22:25:09.137Z,62.70
2022-07-31T22:27:26.442Z,62.72
2022-07-31T22:29:43.745Z,62.35
2022-07-31T22:32:01.024Z,63.03
2022-07-31T22:34:36.901Z,62.79
2022-07-31T22:36:54.999Z,63.28
2022-07-31T22:39:12.130Z,61.73
2022-07-31T22:41:29.485Z,62.17
2022-07-31T22:44:12.690Z,62.38
2022-07-31T22:46:23.846Z,63.64
2022-07-31T22:48:41.193Z,64.05
2022-07-31T22:50:58.416Z,63.15
2022-07-31T22:53:15.713Z,63.73
2022-07-31T22:55:32.942Z,62.51
2022-07-31T22:57:50.225Z,62.80
2022-07-31T23:00:07.126Z,63.04
2022-07-31T23:02:24.175Z,63.90
2022-07-31T23:04:41.201Z,62.82
2022-07-31T23:06:58.243Z,63.37
2022-07-31T23:09:15.239Z,65.23
2022-07-31T23:11:32.299Z,63.80
2022-07-31T23:13:49.553Z,64.78
2022-07-31T23:16:06.872Z,64.91
2022-07-31T23:18:24.112Z,64.92
2022-07-31T23:20:41.364Z,66.05
2022-07-31T23:22:58.659Z,65.75
2022-07-31T23:25:16.698Z,66.19
2022-07-31T23:27:33.725Z,65.90
2022-07-31T23:29:51.033Z,64.89
2022-07-31T23:32:08.211Z,65.37
2022-07-31T23:34:25.619Z,65.54
2022-07-31T23:36:42.736Z,67.10
2022-07-31T23:38:59.993Z,66.58
2022-07-31T23:41:17.237Z,66.20
2022-07-31T23:43:34.360Z,65.52
2022-07-31T23:45:51.600Z,66.14
2022-07-31T23:48:10.594Z,67.22
2022-07-31T23:50:31.989Z,66.07
2022-07-31T23:52:49.015Z,66.68
2022-07-31T23:55:06.373Z,66.81
2022-07-31T23:57:23.390Z,68.34
2022-07-31T23:59:40.763Z,66.67
